createdAt,value
2018-11-03T00:01:39.335Z,98206.80
2018-11-03T00:04:09.235Z,98199.31
2018-11-03T00:06:39.142Z,98207.69
2018-11-03T00:09:10.526Z,98207.80
2018-11-03T00:11:40.730Z,98214.45
2018-11-03T00:14:10.798Z,98207.86
2018-11-03T00:16:40.674Z,98216.69
2018-11-03T00:19:10.606Z,98220.64
2018-11-03T00:21:40.417Z,98220.22
2018-11-03T00:24:10.379Z,98221.45
2018-11-03T00:26:40.236Z,98229.81
2018-11-03T00:29:10.136Z,98229.76
2018-11-03T00:31:40.045Z,98232.80
2018-11-03T00:34:09.955Z,98238.47
2018-11-03T00:36:39.835Z,98236.66
2018-11-03T00:39:11.760Z,98226.58
2018-11-03T00:41:42.172Z,98116.13
2018-11-03T00:44:12.078Z,98229.61
2018-11-03T00:46:41.992Z,98229.21
2018-11-03T00:49:11.882Z,98239.33
2018-11-03T00:51:41.734Z,98240.64
2018-11-03T00:54:11.631Z,98231.84
2018-11-03T00:56:41.467Z,98226.52
2018-11-03T00:59:11.362Z,98227.89
2018-11-03T01:01:41.146Z,98223.96
2018-11-03T01:04:11.087Z,98225.74
2018-11-03T01:06:41.013Z,98225.66
2018-11-03T01:09:10.897Z,98225.59
2018-11-03T01:11:40.783Z,98221.12
2018-11-03T01:14:10.712Z,98218.02
2018-11-03T01:16:40.500Z,98214.53
2018-11-03T01:19:10.362Z,98218.55
2018-11-03T01:21:40.231Z,98223.30
2018-11-03T01:24:10.068Z,98221.06
2018-11-03T01:26:39.986Z,98221.87
2018-11-03T01:29:09.862Z,98225.36
2018-11-03T01:31:39.687Z,98216.59
2018-11-03T01:34:09.581Z,98227.08
2018-11-03T01:36:39.524Z,98227.85
2018-11-03T01:39:11.210Z,98227.45
2018-11-03T01:41:41.162Z,98225.28
2018-11-03T01:44:11.046Z,98220.95
2018-11-03T01:46:40.886Z,98225.02
2018-11-03T01:49:10.797Z,98223.30
2018-11-03T01:51:40.692Z,98218.95
2018-11-03T01:54:10.529Z,98224.67
2018-11-03T01:56:40.448Z,98219.86
2018-11-03T01:59:10.344Z,98225.14
2018-11-03T02:01:40.258Z,98228.23
2018-11-03T02:04:10.267Z,98230.41
2018-11-03T02:06:40.178Z,98229.16
2018-11-03T02:09:10.870Z,98226.91
2018-11-03T02:11:40.816Z,98226.52
2018-11-03T02:14:11.693Z,98224.80
2018-11-03T02:16:41.687Z,98228.75
2018-11-03T02:19:11.524Z,98224.34
2018-11-03T02:21:41.296Z,98224.34
2018-11-03T02:24:11.236Z,98232.25
2018-11-03T02:26:41.054Z,98231.73
2018-11-03T02:29:11.066Z,98233.86
2018-11-03T02:31:41.029Z,98238.15
2018-11-03T02:34:10.849Z,98234.20
2018-11-03T02:36:40.723Z,98239.01
2018-11-03T02:39:10.963Z,98237.75
2018-11-03T02:41:40.814Z,98237.81
2018-11-03T02:44:10.773Z,98239.53
2018-11-03T02:46:40.633Z,98242.16
2018-11-03T02:49:10.568Z,98242.16
2018-11-03T02:51:40.342Z,98248.36
2018-11-03T02:54:10.262Z,98251.91
2018-11-03T02:56:40.121Z,98257.64
2018-11-03T02:59:10.540Z,98262.05
2018-11-03T03:01:40.446Z,98252.83
2018-11-03T03:04:10.275Z,98256.78
2018-11-03T03:06:40.166Z,98246.75
2018-11-03T03:09:10.056Z,98255.58
2018-11-03T03:11:39.884Z,98255.15
2018-11-03T03:14:09.927Z,98250.73
2018-11-03T03:16:39.818Z,98253.34
2018-11-03T03:19:09.725Z,98256.44
2018-11-03T03:21:39.580Z,98258.16
2018-11-03T03:24:09.490Z,98257.30
2018-11-03T03:26:39.307Z,98256.84
2018-11-03T03:29:09.325Z,98261.25
2018-11-03T03:31:39.136Z,98262.59
2018-11-03T03:34:09.059Z,98266.16
2018-11-03T03:36:38.899Z,98268.79
2018-11-03T03:39:10.486Z,98271.42
2018-11-03T03:41:40.754Z,98269.19
2018-11-03T03:44:10.625Z,98267.39
2018-11-03T03:46:40.507Z,98268.25
2018-11-03T03:49:10.334Z,98273.06
2018-11-03T03:51:40.255Z,98264.69
2018-11-03T03:54:10.190Z,98266.41
2018-11-03T03:56:40.037Z,98265.92
2018-11-03T03:59:09.974Z,98270.77
2018-11-03T04:01:39.754Z,98268.59
2018-11-03T04:04:09.547Z,98268.59
2018-11-03T04:06:39.363Z,98274.73
2018-11-03T04:09:10.005Z,98272.09
2018-11-03T04:11:39.835Z,98266.81
2018-11-03T04:14:09.789Z,98267.67
2018-11-03T04:16:39.805Z,98271.58
2018-11-03T04:19:09.660Z,98267.50
2018-11-03T04:21:39.450Z,98272.78
2018-11-03T04:24:09.481Z,98276.70
2018-11-03T04:26:39.352Z,98274.53
2018-11-03T04:29:09.236Z,98277.19
2018-11-03T04:31:39.092Z,98284.24
2018-11-03T04:34:08.952Z,98276.33
2018-11-03T04:36:38.817Z,98272.49
2018-11-03T04:39:08.880Z,98276.84
2018-11-03T04:41:38.666Z,98272.49
2018-11-03T04:44:08.703Z,98276.84
2018-11-03T04:46:38.610Z,98275.12
2018-11-03T04:49:08.435Z,98278.69
2018-11-03T04:51:38.200Z,98279.09
2018-11-03T04:54:08.186Z,98282.64
2018-11-03T04:56:38.040Z,98165.78
2018-11-03T04:59:07.936Z,98281.20
2018-11-03T05:01:37.808Z,98274.21
2018-11-03T05:04:07.657Z,98284.30
2018-11-03T05:06:37.496Z,98287.00
2018-11-03T05:09:09.503Z,98297.09
2018-11-03T05:11:39.567Z,98294.85
2018-11-03T05:14:10.242Z,98296.57
2018-11-03T05:16:40.149Z,98296.09
2018-11-03T05:19:10.057Z,98300.47
2018-11-03T05:21:39.903Z,98300.90
2018-11-03T05:24:09.751Z,98292.07
2018-11-03T05:26:39.638Z,98299.53
2018-11-03T05:29:09.992Z,98300.78
2018-11-03T05:31:39.896Z,98296.43
2018-11-03T05:34:10.227Z,98297.41
2018-11-03T05:36:40.172Z,98301.36
2018-11-03T05:39:11.622Z,98298.72
2018-11-03T05:41:42.168Z,98307.06
2018-11-03T05:44:12.585Z,98307.06
2018-11-03T05:46:42.767Z,98311.13
2018-11-03T05:49:12.872Z,98323.06
2018-11-03T05:51:42.668Z,98312.45
2018-11-03T05:54:12.555Z,98319.36
2018-11-03T05:56:42.422Z,98315.41
2018-11-03T05:59:12.287Z,98317.53
2018-11-03T06:01:42.136Z,98314.43
2018-11-03T06:04:12.027Z,98327.22
2018-11-03T06:06:41.871Z,98338.63
2018-11-03T06:09:12.139Z,98254.47
2018-11-03T06:11:41.931Z,98344.25
2018-11-03T06:14:11.877Z,98345.11
2018-11-03T06:16:41.724Z,98351.16
2018-11-03T06:19:11.575Z,98357.24
2018-11-03T06:21:41.481Z,98351.50
2018-11-03T06:24:11.372Z,98356.30
2018-11-03T06:26:41.385Z,98294.94
2018-11-03T06:29:11.222Z,98373.39
2018-11-03T06:31:41.542Z,98367.56
2018-11-03T06:34:11.415Z,98367.39
2018-11-03T06:36:41.324Z,98364.20
2018-11-03T06:39:11.203Z,98365.72
2018-11-03T06:41:41.049Z,98369.63
2018-11-03T06:44:10.981Z,98374.42
2018-11-03T06:46:40.859Z,98383.39
2018-11-03T06:49:15.818Z,98387.29
2018-11-03T06:51:45.635Z,98389.41
2018-11-03T06:54:15.454Z,98398.31
2018-11-03T06:56:45.395Z,98401.35
2018-11-03T06:59:15.586Z,98405.84
2018-11-03T07:01:45.459Z,98409.00
2018-11-03T07:04:15.466Z,98421.23
2018-11-03T07:06:45.353Z,98422.70
2018-11-03T07:09:15.204Z,98434.65
2018-11-03T07:11:45.091Z,98426.72
2018-11-03T07:14:14.912Z,98428.91
2018-11-03T07:16:44.838Z,98438.73
2018-11-03T07:19:14.971Z,98437.44
2018-11-03T07:21:44.905Z,98443.33
2018-11-03T07:24:14.742Z,98445.69
2018-11-03T07:26:44.662Z,98451.91
2018-11-03T07:29:14.494Z,98450.25
2018-11-03T07:31:44.415Z,98445.49
2018-11-03T07:34:14.419Z,98449.85
2018-11-03T07:36:44.291Z,98442.19
2018-11-03T07:39:14.332Z,98445.75
2018-11-03T07:41:44.158Z,98454.98
2018-11-03T07:44:14.056Z,98451.91
2018-11-03T07:46:43.982Z,98448.79
2018-11-03T07:49:17.547Z,98448.41
2018-11-03T07:51:48.500Z,98445.77
2018-11-03T07:54:18.491Z,98454.16
2018-11-03T07:56:48.379Z,98455.33
2018-11-03T07:59:18.305Z,98459.17
2018-11-03T08:01:48.206Z,98453.86
2018-11-03T08:04:18.130Z,98456.05
2018-11-03T08:06:48.000Z,98459.55
2018-11-03T08:09:18.036Z,98468.21
2018-11-03T08:11:47.830Z,98467.27
2018-11-03T08:14:17.750Z,98465.17
2018-11-03T08:16:47.762Z,98476.25
2018-11-03T08:19:17.572Z,98473.27
2018-11-03T08:21:47.370Z,98473.75
2018-11-03T08:24:17.394Z,98481.22
2018-11-03T08:26:47.318Z,98483.78
2018-11-03T08:29:17.264Z,98483.26
2018-11-03T08:31:47.336Z,98457.31
2018-11-03T08:34:17.003Z,98480.55
2018-11-03T08:36:46.873Z,98479.47
2018-11-03T08:39:16.774Z,98473.75
2018-11-03T08:41:46.564Z,98472.43
2018-11-03T08:44:16.518Z,98475.45
2018-11-03T08:46:46.458Z,98483.19
2018-11-03T08:49:16.407Z,98484.67
2018-11-03T08:51:46.324Z,98484.77
2018-11-03T08:54:16.257Z,98478.37
2018-11-03T08:56:46.157Z,98484.52
2018-11-03T08:59:16.094Z,98486.27
2018-11-03T09:01:45.958Z,98483.25
2018-11-03T09:04:15.894Z,98487.73
2018-11-03T09:06:45.828Z,98494.22
2018-11-03T09:09:15.779Z,98499.47
2018-11-03T09:11:45.813Z,98508.54
2018-11-03T09:14:16.030Z,98499.81
2018-11-03T09:16:46.042Z,98496.19
2018-11-03T09:19:15.987Z,98498.66
2018-11-03T09:21:45.947Z,98493.63
2018-11-03T09:24:15.930Z,98496.12
2018-11-03T09:26:45.869Z,98497.23
2018-11-03T09:29:15.822Z,98496.55
2018-11-03T09:31:45.713Z,98489.67
2018-11-03T09:34:15.611Z,98490.70
2018-11-03T09:36:45.514Z,98497.07
2018-11-03T09:39:15.446Z,98498.97
2018-11-03T09:41:45.250Z,98493.33
2018-11-03T09:44:15.218Z,98503.59
2018-11-03T09:46:45.152Z,98506.01
2018-11-03T09:49:15.026Z,98127.96
2018-11-03T09:51:44.986Z,98497.70
2018-11-03T09:54:14.974Z,98496.61
2018-11-03T09:56:44.916Z,98482.13
2018-11-03T09:59:14.855Z,98459.63
2018-11-03T10:01:44.811Z,98458.94
2018-11-03T10:04:14.699Z,98453.55
2018-11-03T10:06:44.841Z,98457.45
2018-11-03T10:09:14.743Z,98446.39
2018-11-03T10:11:44.721Z,98447.11
2018-11-03T10:14:14.668Z,98444.46
2018-11-03T10:16:44.707Z,98448.07
2018-11-03T10:19:14.638Z,98448.65
2018-11-03T10:21:44.583Z,98444.00
2018-11-03T10:24:14.601Z,98436.73
2018-11-03T10:26:44.560Z,98445.72
2018-11-03T10:29:14.488Z,98447.97
2018-11-03T10:31:44.339Z,98449.94
2018-11-03T10:34:14.175Z,98450.48
2018-11-03T10:36:44.071Z,98444.03
2018-11-03T10:39:14.189Z,98443.89
2018-11-03T10:41:44.025Z,98440.48
2018-11-03T10:44:13.919Z,98441.59
2018-11-03T10:46:43.931Z,98439.94
2018-11-03T10:49:13.892Z,98437.08
2018-11-03T10:51:43.779Z,98434.03
2018-11-03T10:54:13.785Z,98418.61
2018-11-03T10:56:43.713Z,98419.01
2018-11-03T10:59:13.551Z,98420.44
2018-11-03T11:01:48.511Z,98420.51
2018-11-03T11:04:23.506Z,98412.73
2018-11-03T11:06:58.663Z,98406.30
2018-11-03T11:09:35.555Z,98402.33
2018-11-03T11:12:13.367Z,98318.11
2018-11-03T11:14:43.259Z,98406.70
2018-11-03T11:17:13.214Z,98406.95
2018-11-03T11:19:43.193Z,98402.88
2018-11-03T11:22:12.982Z,98403.67
2018-11-03T11:24:42.984Z,98401.95
2018-11-03T11:27:12.950Z,98399.70
2018-11-03T11:29:42.878Z,98400.91
2018-11-03T11:32:12.716Z,98405.20
2018-11-03T11:34:42.654Z,98404.67
2018-11-03T11:37:12.659Z,98400.91
2018-11-03T11:39:42.594Z,98405.48
2018-11-03T11:42:12.525Z,98409.17
2018-11-03T11:44:42.434Z,98405.27
2018-11-03T11:47:12.375Z,98402.94
2018-11-03T11:49:42.293Z,98402.42
2018-11-03T11:52:12.267Z,98405.47
2018-11-03T11:54:42.250Z,98394.41
2018-11-03T11:57:12.200Z,98387.17
2018-11-03T11:59:42.470Z,98389.56
2018-11-03T12:02:12.417Z,98383.41
2018-11-03T12:04:42.323Z,98381.16
2018-11-03T12:07:12.223Z,98381.35
2018-11-03T12:09:42.150Z,98377.56
2018-11-03T12:12:12.071Z,98381.58
2018-11-03T12:14:42.027Z,98379.84
2018-11-03T12:17:11.903Z,98374.44
2018-11-03T12:19:41.889Z,98373.27
2018-11-03T12:22:11.758Z,98369.75
2018-11-03T12:24:41.687Z,98370.38
2018-11-03T12:27:11.683Z,98368.20
2018-11-03T12:29:41.668Z,98365.85
2018-11-03T12:32:11.563Z,98360.63
2018-11-03T12:34:41.501Z,98367.34
2018-11-03T12:37:11.406Z,98367.20
2018-11-03T12:39:41.339Z,98372.79
2018-11-03T12:42:11.243Z,98372.77
2018-11-03T12:44:41.159Z,98364.54
2018-11-03T12:47:11.110Z,98364.15
2018-11-03T12:49:40.973Z,98359.00
2018-11-03T12:52:10.829Z,98356.55
2018-11-03T12:54:40.791Z,98354.83
2018-11-03T12:57:10.667Z,98362.40
2018-11-03T12:59:40.551Z,98361.66
2018-11-03T13:02:10.567Z,98366.61
2018-11-03T13:04:40.434Z,98360.80
2018-11-03T13:07:10.439Z,98350.47
2018-11-03T13:09:40.493Z,98351.88
2018-11-03T13:12:10.496Z,98351.34
2018-11-03T13:14:40.404Z,98355.98
2018-11-03T13:17:10.316Z,98359.33
2018-11-03T13:19:40.214Z,98367.70
2018-11-03T13:22:10.099Z,98307.41
2018-11-03T13:24:40.093Z,98360.93
2018-11-03T13:27:10.022Z,98365.96
2018-11-03T13:29:39.948Z,98367.16
2018-11-03T13:32:10.007Z,98363.06
2018-11-03T13:34:39.973Z,98368.48
2018-11-03T13:37:09.949Z,98368.69
2018-11-03T13:39:39.938Z,98209.24
2018-11-03T13:42:09.810Z,98379.83
2018-11-03T13:44:39.762Z,98381.73
2018-11-03T13:47:09.733Z,98386.66
2018-11-03T13:49:39.568Z,98396.19
2018-11-03T13:52:09.504Z,98390.71
2018-11-03T13:54:39.423Z,98395.73
2018-11-03T13:57:09.487Z,98387.39
2018-11-03T13:59:39.234Z,98387.19
2018-11-03T14:02:09.186Z,98387.86
2018-11-03T14:04:39.136Z,98384.25
2018-11-03T14:07:09.046Z,98386.05
2018-11-03T14:09:38.945Z,98393.78
2018-11-03T14:12:08.829Z,98398.02
2018-11-03T14:14:38.686Z,98391.18
2018-11-03T14:17:08.739Z,98390.53
2018-11-03T14:19:38.566Z,98389.92
2018-11-03T14:22:08.441Z,98388.42
2018-11-03T14:24:38.338Z,98382.02
2018-11-03T14:27:08.275Z,98387.88
2018-11-03T14:29:38.179Z,98390.67
2018-11-03T14:32:08.148Z,98389.84
2018-11-03T14:34:38.051Z,98386.70
2018-11-03T14:37:08.170Z,98386.91
2018-11-03T14:39:38.139Z,98393.70
2018-11-03T14:42:08.023Z,98395.80
2018-11-03T14:44:37.945Z,98394.19
2018-11-03T14:47:07.890Z,98388.89
2018-11-03T14:49:37.712Z,98391.14
2018-11-03T14:52:07.578Z,98388.10
2018-11-03T14:54:37.500Z,98388.60
2018-11-03T14:57:07.521Z,98391.16
2018-11-03T14:59:37.467Z,98392.48
2018-11-03T15:02:07.355Z,98392.19
2018-11-03T15:04:37.303Z,98393.28
2018-11-03T15:07:07.365Z,98395.53
2018-11-03T15:09:37.366Z,98398.88
2018-11-03T15:12:07.330Z,98397.72
2018-11-03T15:14:37.282Z,98400.78
2018-11-03T15:17:07.510Z,98399.23
2018-11-03T15:19:37.406Z,98397.94
2018-11-03T15:22:07.671Z,98398.07
2018-11-03T15:24:37.620Z,98393.87
2018-11-03T15:27:07.511Z,98394.34
2018-11-03T15:29:37.370Z,98385.55
2018-11-03T15:32:07.356Z,98393.14
2018-11-03T15:34:37.320Z,98392.37
2018-11-03T15:37:07.546Z,98391.69
2018-11-03T15:39:37.427Z,98397.95
2018-11-03T15:42:07.335Z,98395.88
2018-11-03T15:44:37.238Z,98394.16
2018-11-03T15:47:07.223Z,98394.31
2018-11-03T15:49:37.231Z,98394.38
2018-11-03T15:52:07.151Z,98323.29
2018-11-03T15:54:37.078Z,98392.94
2018-11-03T15:57:07.067Z,98393.49
2018-11-03T15:59:37.031Z,98401.52
2018-11-03T16:02:06.976Z,98398.44
2018-11-03T16:04:36.807Z,98395.80
2018-11-03T16:07:07.111Z,98396.23
2018-11-03T16:09:36.998Z,98399.23
2018-11-03T16:12:07.227Z,98403.20
2018-11-03T16:14:37.051Z,98400.50
2018-11-03T16:17:06.985Z,98408.60
2018-11-03T16:19:36.952Z,98403.95
2018-11-03T16:22:06.771Z,98398.98
2018-11-03T16:24:36.559Z,98402.66
2018-11-03T16:27:06.980Z,98398.83
2018-11-03T16:29:36.986Z,98404.67
2018-11-03T16:32:06.969Z,98401.92
2018-11-03T16:34:36.796Z,98403.09
2018-11-03T16:37:06.740Z,98411.70
2018-11-03T16:39:36.711Z,98407.47
2018-11-03T16:42:06.739Z,98413.31
2018-11-03T16:44:36.569Z,98406.64
2018-11-03T16:47:06.948Z,98411.42
2018-11-03T16:49:36.946Z,98414.91
2018-11-03T16:52:06.807Z,98411.62
2018-11-03T16:54:36.619Z,98409.22
2018-11-03T16:57:06.507Z,98410.73
2018-11-03T16:59:36.354Z,98418.84
2018-11-03T17:02:06.630Z,98417.25
2018-11-03T17:04:36.442Z,98412.63
2018-11-03T17:07:06.374Z,98418.45
2018-11-03T17:09:36.247Z,98416.41
2018-11-03T17:12:06.522Z,98419.23
2018-11-03T17:14:36.374Z,98429.86
2018-11-03T17:17:06.264Z,98424.18
2018-11-03T17:19:36.254Z,98419.88
2018-11-03T17:22:06.414Z,98411.19
2018-11-03T17:24:36.255Z,98403.78
2018-11-03T17:27:06.192Z,98400.30
2018-11-03T17:29:36.208Z,98411.38
2018-11-03T17:32:06.414Z,98410.70
2018-11-03T17:34:36.400Z,98411.70
2018-11-03T17:37:06.366Z,98406.94
2018-11-03T17:39:36.210Z,98408.76
2018-11-03T17:42:06.346Z,98408.47
2018-11-03T17:44:36.230Z,98403.72
2018-11-03T17:47:06.622Z,98401.59
2018-11-03T17:49:36.851Z,98355.07
2018-11-03T17:52:07.025Z,98409.34
2018-11-03T17:54:36.935Z,98398.93
2018-11-03T17:57:06.954Z,98399.84
2018-11-03T17:59:36.892Z,98395.05
2018-11-03T18:02:06.831Z,98396.42
2018-11-03T18:04:36.678Z,98382.84
2018-11-03T18:07:06.902Z,98378.02
2018-11-03T18:09:36.801Z,98374.14
2018-11-03T18:12:06.794Z,98375.11
2018-11-03T18:14:36.816Z,98372.61
2018-11-03T18:17:06.783Z,98369.22
2018-11-03T18:19:36.752Z,98368.78
2018-11-03T18:22:06.651Z,98372.73
2018-11-03T18:24:36.766Z,98373.17
2018-11-03T18:27:07.036Z,98370.94
2018-11-03T18:29:37.112Z,98372.66
2018-11-03T18:32:07.056Z,98376.11
2018-11-03T18:34:37.128Z,98365.10
2018-11-03T18:37:07.106Z,98363.79
2018-11-03T18:39:37.169Z,98365.97
2018-11-03T18:42:07.248Z,98362.39
2018-11-03T18:44:37.242Z,98360.11
2018-11-03T18:47:07.202Z,98357.85
2018-11-03T18:49:37.206Z,98359.58
2018-11-03T18:52:07.256Z,98357.39
2018-11-03T18:54:37.200Z,98365.30
2018-11-03T18:57:07.171Z,98364.28
2018-11-03T18:59:37.191Z,98364.28
2018-11-03T19:02:07.118Z,98354.25
2018-11-03T19:04:37.173Z,98353.04
2018-11-03T19:07:07.147Z,98356.99
2018-11-03T19:09:37.151Z,98359.25
2018-11-03T19:12:07.865Z,98354.48
2018-11-03T19:14:37.909Z,98363.95
2018-11-03T19:17:07.910Z,98360.58
2018-11-03T19:19:37.851Z,98366.89
2018-11-03T19:22:08.787Z,98360.83
2018-11-03T19:24:38.678Z,98372.28
2018-11-03T19:27:08.752Z,98371.42
2018-11-03T19:29:38.899Z,98374.44
2018-11-03T19:32:08.877Z,98376.19
2018-11-03T19:34:38.897Z,98377.50
2018-11-03T19:37:08.867Z,98384.02
2018-11-03T19:39:38.803Z,98384.87
2018-11-03T19:42:08.667Z,98391.41
2018-11-03T19:44:38.701Z,98391.81
2018-11-03T19:47:08.782Z,98395.19
2018-11-03T19:49:38.873Z,98397.47
2018-11-03T19:52:09.019Z,98393.98
2018-11-03T19:54:39.010Z,98395.77
2018-11-03T19:57:08.942Z,98400.69
2018-11-03T19:59:38.955Z,98404.74
2018-11-03T20:02:08.915Z,98404.77
2018-11-03T20:04:38.991Z,98403.50
2018-11-03T20:07:09.135Z,98403.95
2018-11-03T20:09:39.315Z,98409.22
2018-11-03T20:12:09.642Z,98407.05
2018-11-03T20:14:39.598Z,98406.64
2018-11-03T20:17:09.639Z,98405.72
2018-11-03T20:19:39.688Z,98398.00
2018-11-03T20:22:09.672Z,98395.89
2018-11-03T20:24:39.891Z,98394.72
2018-11-03T20:27:09.989Z,98398.39
2018-11-03T20:29:40.008Z,98401.09
2018-11-03T20:32:09.996Z,98400.63
2018-11-03T20:34:40.209Z,98405.83
2018-11-03T20:37:10.187Z,98399.55
2018-11-03T20:39:40.403Z,98396.44
2018-11-03T20:42:10.327Z,98309.19
2018-11-03T20:44:40.195Z,98404.30
2018-11-03T20:47:11.326Z,97961.94
2018-11-03T20:49:41.254Z,98409.92
2018-11-03T20:52:11.463Z,98399.81
2018-11-03T20:54:41.315Z,98398.34
2018-11-03T20:57:11.200Z,98396.91
2018-11-03T20:59:41.111Z,98390.66
2018-11-03T21:02:11.204Z,98389.41
2018-11-03T21:04:40.990Z,98387.28
2018-11-03T21:07:10.909Z,98386.02
2018-11-03T21:09:40.846Z,98379.27
2018-11-03T21:12:10.826Z,98375.02
2018-11-03T21:14:40.744Z,98372.34
2018-11-03T21:17:10.695Z,98375.77
2018-11-03T21:19:40.591Z,98374.84
2018-11-03T21:22:12.112Z,98369.02
2018-11-03T21:24:42.903Z,98368.08
2018-11-03T21:27:13.269Z,98357.14
2018-11-03T21:29:43.394Z,98357.54
2018-11-03T21:32:13.441Z,98349.98
2018-11-03T21:34:43.326Z,98343.73
2018-11-03T21:37:13.240Z,98346.37
2018-11-03T21:39:43.595Z,98344.59
2018-11-03T21:42:13.571Z,98346.71
2018-11-03T21:44:43.527Z,98344.86
2018-11-03T21:47:13.595Z,98342.97
2018-11-03T21:49:43.478Z,98346.80
2018-11-03T21:52:13.395Z,98343.44
2018-11-03T21:54:43.319Z,98341.95
2018-11-03T21:57:13.258Z,98341.49
2018-11-03T21:59:43.194Z,98337.41
2018-11-03T22:02:13.009Z,98332.85
2018-11-03T22:04:42.847Z,98331.42
2018-11-03T22:07:12.803Z,98326.61
2018-11-03T22:09:42.631Z,98327.52
2018-11-03T22:12:12.518Z,98319.72
2018-11-03T22:14:42.484Z,98316.31
2018-11-03T22:17:12.315Z,98319.00
2018-11-03T22:19:42.189Z,98314.02
2018-11-03T22:22:12.067Z,98318.43
2018-11-03T22:24:41.886Z,98310.12
2018-11-03T22:27:11.854Z,98301.75
2018-11-03T22:29:41.787Z,98299.17
2018-11-03T22:32:11.718Z,98292.64
2018-11-03T22:34:41.635Z,98293.95
2018-11-03T22:37:11.621Z,98286.05
2018-11-03T22:39:41.484Z,98283.03
2018-11-03T22:42:11.467Z,98275.18
2018-11-03T22:44:41.404Z,98276.21
2018-11-03T22:47:11.365Z,98277.09
2018-11-03T22:49:41.301Z,98274.97
2018-11-03T22:52:11.228Z,98274.52
2018-11-03T22:54:41.168Z,98277.53
2018-11-03T22:57:11.089Z,98271.34
2018-11-03T22:59:40.990Z,98276.50
2018-11-03T23:02:10.899Z,98271.22
2018-11-03T23:04:40.782Z,98266.81
2018-11-03T23:07:10.719Z,98267.27
2018-11-03T23:09:40.625Z,98259.30
2018-11-03T23:12:10.490Z,98258.42
2018-11-03T23:14:40.370Z,98252.62
2018-11-03T23:17:10.213Z,98256.13
2018-11-03T23:19:40.384Z,98247.41
2018-11-03T23:22:10.279Z,98251.84
2018-11-03T23:24:40.211Z,98243.91
2018-11-03T23:27:10.047Z,98242.59
2018-11-03T23:29:40.107Z,98245.38
2018-11-03T23:32:09.923Z,98241.48
2018-11-03T23:34:39.863Z,98237.52
2018-11-03T23:37:09.913Z,98236.67
2018-11-03T23:39:39.780Z,98228.76
2018-11-03T23:42:09.757Z,98222.59
2018-11-03T23:44:39.692Z,98220.88
2018-11-03T23:47:09.497Z,98217.37
2018-11-03T23:49:39.360Z,98221.33
2018-11-03T23:52:09.271Z,98215.12
2018-11-03T23:54:39.133Z,98216.38
2018-11-03T23:57:08.943Z,98218.95
2018-11-03T23:59:38.892Z,98221.59
